createdAt,value
2022-10-23T00:01:46.079Z,100389.69
2022-10-23T00:04:25.234Z,100398.50
2022-10-23T00:06:52.359Z,100392.00
2022-10-23T00:09:22.638Z,100391.34
2022-10-23T00:11:50.939Z,100385.88
2022-10-23T00:14:20.399Z,100383.13
2022-10-23T00:16:47.086Z,100389.25
2022-10-23T00:19:13.863Z,100387.13
2022-10-23T00:21:40.993Z,100385.03
2022-10-23T00:26:38.423Z,100374.31
2022-10-23T00:29:05.899Z,100369.03
2022-10-23T00:31:33.112Z,100377.88
2022-10-23T00:33:59.833Z,100375.78
2022-10-23T00:36:26.862Z,100365.69
2022-10-23T00:38:53.687Z,100373.25
2022-10-23T00:41:24.190Z,100375.38
2022-10-23T00:44:30.501Z,100382.31
2022-10-23T00:46:58.793Z,100376.84
2022-10-23T00:49:25.763Z,100377.66
2022-10-23T00:51:57.153Z,100378.31
2022-10-23T00:54:27.526Z,100382.94
2022-10-23T00:56:58.664Z,100379.56
2022-10-23T00:59:25.391Z,100382.31
2022-10-23T01:01:52.515Z,100386.53
2022-10-23T01:04:20.009Z,100379.34
2022-10-23T01:06:52.375Z,100382.09
2022-10-23T01:09:29.780Z,100382.50
2022-10-23T01:12:19.744Z,100375.34
2022-10-23T01:15:07.476Z,100373.66
2022-10-23T01:17:44.657Z,100370.91
2022-10-23T01:20:35.319Z,100376.38
2022-10-23T01:23:20.816Z,100368.16
2022-10-23T01:26:07.987Z,100366.50
2022-10-23T01:28:44.343Z,100344.59
2022-10-23T01:31:16.801Z,100345.25
2022-10-23T01:33:49.265Z,100349.03
2022-10-23T01:36:18.900Z,100344.59
2022-10-23T01:39:00.755Z,100337.41
2022-10-23T01:41:34.290Z,100345.22
2022-10-23T01:44:16.236Z,100339.31
2022-10-23T01:46:45.474Z,100333.00
2022-10-23T01:49:14.723Z,100326.66
2022-10-23T01:51:47.033Z,100332.78
2022-10-23T01:54:16.838Z,100319.13
2022-10-23T01:56:47.096Z,100314.69
2022-10-23T01:59:19.942Z,100304.78
2022-10-23T02:01:50.737Z,100303.94
2022-10-23T02:04:24.362Z,100301.00
2022-10-23T02:06:51.409Z,100292.78
2022-10-23T02:09:18.235Z,100290.06
2022-10-23T02:12:47.528Z,100286.50
2022-10-23T02:16:09.320Z,100288.19
2022-10-23T02:23:34.307Z,100289.84
2022-10-23T02:26:55.692Z,100283.09
2022-10-23T02:29:30.347Z,100280.81
2022-10-23T02:31:57.251Z,100281.63
2022-10-23T02:34:23.961Z,100280.59
2022-10-23T02:36:51.624Z,100278.06
2022-10-23T02:39:18.785Z,100275.13
2022-10-23T02:41:50.364Z,100273.22
2022-10-23T02:44:26.625Z,100269.66
2022-10-23T02:47:13.333Z,100269.66
2022-10-23T02:49:53.537Z,100259.31
2022-10-23T02:52:38.569Z,100249.00
2022-10-23T02:55:23.665Z,100238.06
2022-10-23T02:58:19.250Z,100233.22
2022-10-23T03:00:52.678Z,100221.22
2022-10-23T03:03:34.203Z,100212.56
2022-10-23T03:06:01.760Z,100212.34
2022-10-23T03:08:28.635Z,100208.34
2022-10-23T03:10:55.445Z,100207.31
2022-10-23T03:13:23.618Z,100203.53
2022-10-23T03:15:50.514Z,100206.03
2022-10-23T03:18:17.220Z,100197.84
2022-10-23T03:20:43.850Z,100194.88
2022-10-23T03:23:13.486Z,100193.41
2022-10-23T03:25:40.196Z,100198.66
2022-10-23T03:28:06.889Z,100199.25
2022-10-23T03:30:33.796Z,100194.44
2022-10-23T03:33:00.424Z,100200.53
2022-10-23T03:35:27.124Z,100201.38
2022-10-23T03:37:54.045Z,100201.59
2022-10-23T03:40:20.983Z,100189.34
2022-10-23T03:42:47.769Z,100196.50
2022-10-23T03:45:14.860Z,100187.25
2022-10-23T03:47:41.897Z,100181.78
2022-10-23T03:50:10.191Z,100179.88
2022-10-23T03:52:37.563Z,100173.56
2022-10-23T03:55:05.475Z,100158.19
2022-10-23T03:57:33.037Z,100154.63
2022-10-23T03:59:59.875Z,100147.44
2022-10-23T04:02:26.685Z,100135.66
2022-10-23T04:04:54.147Z,100127.66
2022-10-23T04:07:21.143Z,100127.22
2022-10-23T04:09:47.808Z,100116.28
2022-10-23T04:12:14.571Z,100112.91
2022-10-23T04:14:41.937Z,100107.66
2022-10-23T04:17:08.631Z,100119.25
2022-10-23T04:19:35.442Z,100122.81
2022-10-23T04:22:02.322Z,100113.75
2022-10-23T04:24:28.967Z,100113.75
2022-10-23T04:26:55.682Z,100098.16
2022-10-23T04:29:24.705Z,100104.69
2022-10-23T04:31:51.902Z,100113.75
2022-10-23T04:34:18.957Z,100120.91
2022-10-23T04:36:45.693Z,100113.75
2022-10-23T04:39:12.983Z,100113.53
2022-10-23T04:41:39.694Z,100099.00
2022-10-23T04:44:07.083Z,100081.94
2022-10-23T04:46:33.784Z,100075.44
2022-10-23T04:49:00.767Z,100064.47
2022-10-23T04:51:27.587Z,100058.13
2022-10-23T04:53:54.550Z,100048.03
2022-10-23T04:56:21.226Z,100045.75
2022-10-23T04:58:48.063Z,100051.22
2022-10-23T05:01:15.144Z,100045.94
2022-10-23T05:03:41.842Z,100042.59
2022-10-23T05:06:08.650Z,100042.81
2022-10-23T05:08:36.094Z,100029.13
2022-10-23T05:11:02.951Z,100022.78
2022-10-23T05:13:29.716Z,100018.19
2022-10-23T05:16:00.240Z,100015.66
2022-10-23T05:18:28.755Z,100015.66
2022-10-23T05:21:29.509Z,100014.81
2022-10-23T05:23:56.290Z,100015.25
2022-10-23T05:26:23.090Z,100019.03
2022-10-23T05:28:50.030Z,100017.97
2022-10-23T05:31:19.102Z,100011.47
2022-10-23T05:33:45.942Z,100010.59
2022-10-23T05:36:14.349Z,100004.28
2022-10-23T05:38:41.470Z,99996.09
2022-10-23T05:41:08.252Z,99986.19
2022-10-23T05:43:35.068Z,99986.41
2022-10-23T05:46:05.676Z,99992.75
2022-10-23T05:48:35.423Z,99986.63
2022-10-23T05:51:06.879Z,99986.63
2022-10-23T05:53:36.142Z,99981.16
2022-10-23T05:56:09.546Z,99991.88
2022-10-23T05:58:36.647Z,99988.31
2022-10-23T06:01:08.031Z,99997.34
2022-10-23T06:03:35.696Z,99988.31
2022-10-23T06:06:02.481Z,99978.19
2022-10-23T06:08:30.073Z,99968.94
2022-10-23T06:10:56.903Z,99980.72
2022-10-23T06:13:23.755Z,99980.72
2022-10-23T06:15:50.529Z,99977.97
2022-10-23T06:18:17.360Z,99977.97
2022-10-23T06:20:44.377Z,99960.50
2022-10-23T06:23:11.024Z,99957.53
2022-10-23T06:25:38.179Z,99950.19
2022-10-23T06:28:04.982Z,99941.09
2022-10-23T06:30:31.725Z,99934.81
2022-10-23T06:33:01.112Z,99938.38
2022-10-23T06:35:30.151Z,99931.03
2022-10-23T06:37:56.811Z,99928.28
2022-10-23T06:40:23.655Z,99922.81
2022-10-23T06:42:50.367Z,99911.84
2022-10-23T06:45:17.197Z,99901.97
2022-10-23T06:47:44.207Z,99902.78
2022-10-23T06:50:13.204Z,99903.66
2022-10-23T06:52:46.952Z,99909.13
2022-10-23T06:55:15.098Z,99902.34
2022-10-23T06:57:43.046Z,99896.03
2022-10-23T07:00:11.267Z,99901.50
2022-10-23T07:02:38.134Z,99896.03
2022-10-23T07:05:07.682Z,99894.97
2022-10-23T07:07:36.614Z,99888.66
2022-10-23T07:10:03.957Z,99896.88
2022-10-23T07:12:30.929Z,99892.47
2022-10-23T07:14:57.797Z,99884.47
2022-10-23T07:17:24.651Z,99876.28
2022-10-23T07:19:52.912Z,99870.78
2022-10-23T07:22:22.589Z,99879.00
2022-10-23T07:24:49.564Z,99869.94
2022-10-23T07:27:16.204Z,99876.28
2022-10-23T07:29:42.926Z,99865.31
2022-10-23T07:32:10.034Z,99854.38
2022-10-23T07:34:37.228Z,99866.16
2022-10-23T07:37:03.934Z,99862.78
2022-10-23T07:39:30.846Z,99872.44
2022-10-23T07:41:57.445Z,99852.69
2022-10-23T07:44:26.981Z,99849.09
2022-10-23T07:46:54.651Z,99840.88
2022-10-23T07:49:21.312Z,99839.22
2022-10-23T07:51:51.230Z,99842.78
2022-10-23T07:54:19.131Z,99829.94
2022-10-23T07:56:45.802Z,99834.34
2022-10-23T07:59:13.592Z,99827.00
2022-10-23T08:01:40.936Z,99825.91
2022-10-23T08:04:08.033Z,99834.75
2022-10-23T08:06:35.468Z,99826.53
2022-10-23T08:09:06.284Z,99818.31
2022-10-23T08:11:35.875Z,99814.53
2022-10-23T08:18:54.777Z,99801.44
2022-10-23T08:21:21.548Z,99801.00
2022-10-23T08:23:48.246Z,99798.03
2022-10-23T08:26:15.827Z,99800.53
2022-10-23T08:28:42.573Z,99800.53
2022-10-23T08:31:15.147Z,99807.09
2022-10-23T08:33:43.349Z,99800.53
2022-10-23T08:36:23.245Z,99797.81
2022-10-23T08:38:53.792Z,99791.03
2022-10-23T08:41:38.671Z,99795.47
2022-10-23T08:44:36.064Z,99790.63
2022-10-23T08:47:10.661Z,99784.69
2022-10-23T08:49:50.901Z,99788.88
2022-10-23T08:52:22.293Z,99771.13
2022-10-23T08:55:02.555Z,99785.69
2022-10-23T08:57:40.052Z,99779.34
2022-10-23T09:00:14.962Z,99784.47
2022-10-23T09:02:51.521Z,99791.00
2022-10-23T09:05:21.822Z,99794.78
2022-10-23T09:08:08.943Z,99793.56
2022-10-23T09:10:38.388Z,99783.69
2022-10-23T09:13:34.599Z,99777.59
2022-10-23T09:16:38.123Z,99785.19
2022-10-23T09:19:20.041Z,99784.34
2022-10-23T09:21:50.354Z,99788.53
2022-10-23T09:24:19.814Z,99780.56
2022-10-23T09:26:49.975Z,99781.38
2022-10-23T09:29:33.019Z,99780.31
2022-10-23T09:32:02.149Z,99776.53
2022-10-23T09:34:30.734Z,99774.38
2022-10-23T09:37:00.603Z,99766.81
2022-10-23T09:39:30.646Z,99767.41
2022-10-23T09:41:58.613Z,99770.75
2022-10-23T09:44:28.145Z,99758.53
2022-10-23T09:47:19.077Z,99764.00
2022-10-23T09:49:53.662Z,99767.78
2022-10-23T09:52:29.259Z,99765.88
2022-10-23T09:55:02.623Z,99758.28
2022-10-23T09:57:35.866Z,99761.38
2022-10-23T10:00:15.995Z,99760.00
2022-10-23T10:02:54.635Z,99761.53
2022-10-23T10:05:25.616Z,99755.28
2022-10-23T10:08:19.993Z,99750.38
2022-10-23T10:11:00.257Z,99760.34
2022-10-23T10:13:52.271Z,99746.53
2022-10-23T10:16:48.115Z,99740.59
2022-10-23T10:19:33.310Z,99742.03
2022-10-23T10:22:21.114Z,99738.56
2022-10-23T10:25:09.761Z,99727.03
2022-10-23T10:28:00.499Z,99729.53
2022-10-23T10:30:49.439Z,99740.88
2022-10-23T10:33:25.056Z,99738.13
2022-10-23T10:36:20.105Z,99718.09
2022-10-23T10:38:51.709Z,99726.06
2022-10-23T10:41:27.235Z,99716.44
2022-10-23T10:44:34.038Z,99704.59
2022-10-23T10:47:24.445Z,99704.00
2022-10-23T10:49:54.083Z,99710.47
2022-10-23T10:52:49.349Z,99703.53
2022-10-23T10:55:32.437Z,99706.44
2022-10-23T10:58:16.595Z,99700.00
2022-10-23T11:00:46.193Z,99705.13
2022-10-23T11:03:40.265Z,99700.16
2022-10-23T11:06:15.415Z,99698.63
2022-10-23T11:08:56.278Z,99693.84
2022-10-23T11:11:28.903Z,99691.72
2022-10-23T11:13:56.133Z,99687.69
2022-10-23T11:16:33.825Z,99691.00
2022-10-23T11:19:14.105Z,99683.13
2022-10-23T11:22:01.347Z,99675.66
2022-10-23T11:24:45.349Z,99675.19
2022-10-23T11:27:36.991Z,99679.41
2022-10-23T11:30:17.242Z,99677.78
2022-10-23T11:33:08.717Z,99676.53
2022-10-23T11:36:07.072Z,99672.78
2022-10-23T11:38:37.624Z,99663.47
2022-10-23T11:41:16.441Z,99668.00
2022-10-23T11:43:57.220Z,99665.53
2022-10-23T11:46:25.636Z,99670.19
2022-10-23T11:48:53.983Z,99667.81
2022-10-23T11:51:34.472Z,99658.88
2022-10-23T11:54:10.103Z,99658.88
2022-10-23T11:56:39.285Z,99657.91
2022-10-23T11:59:50.134Z,99664.34
2022-10-23T12:02:39.028Z,99656.59
2022-10-23T12:05:27.280Z,99651.94
2022-10-23T12:07:58.334Z,99649.53
2022-10-23T12:10:34.823Z,99654.31
2022-10-23T12:13:06.642Z,99638.66
2022-10-23T12:15:36.766Z,99637.94
2022-10-23T12:18:17.533Z,99639.72
2022-10-23T12:20:47.090Z,99642.78
2022-10-23T12:23:26.018Z,99634.50
2022-10-23T12:26:26.378Z,99629.06
2022-10-23T12:29:05.266Z,99627.16
2022-10-23T12:32:01.161Z,99615.47
2022-10-23T12:34:35.198Z,99615.38
2022-10-23T12:37:26.617Z,99615.63
2022-10-23T12:39:55.891Z,99618.06
2022-10-23T12:42:25.048Z,99611.25
2022-10-23T12:45:02.646Z,99606.09
2022-10-23T12:47:30.688Z,99594.59
2022-10-23T12:49:57.597Z,99592.44
2022-10-23T12:52:27.228Z,99589.75
2022-10-23T12:54:53.963Z,99592.38
2022-10-23T12:57:27.088Z,99586.84
2022-10-23T13:00:00.685Z,99576.44
2022-10-23T13:02:30.994Z,99575.97
2022-10-23T13:05:02.218Z,99578.44
2022-10-23T13:07:36.125Z,99580.03
2022-10-23T13:10:04.294Z,99567.84
2022-10-23T13:12:36.411Z,99566.34
2022-10-23T13:15:17.257Z,99563.97
2022-10-23T13:18:07.124Z,99558.66
2022-10-23T13:20:39.639Z,99539.97
2022-10-23T13:23:21.764Z,99532.63
2022-10-23T13:26:03.037Z,99548.53
2022-10-23T13:28:33.728Z,99518.84
2022-10-23T13:31:11.648Z,99538.19
2022-10-23T13:33:39.601Z,99538.31
2022-10-23T13:36:09.256Z,99526.81
2022-10-23T13:38:38.302Z,99522.59
2022-10-23T13:41:06.877Z,99516.06
2022-10-23T13:43:34.269Z,99516.69
2022-10-23T13:46:01.589Z,99514.38
2022-10-23T13:48:28.993Z,99521.75
2022-10-23T13:51:06.536Z,99499.25
2022-10-23T13:53:33.254Z,99491.44
2022-10-23T13:56:00.066Z,99490.59
2022-10-23T13:58:26.888Z,99484.84
2022-10-23T14:00:54.235Z,99478.84
2022-10-23T14:03:24.399Z,99473.56
2022-10-23T14:05:51.981Z,99471.56
2022-10-23T14:08:19.285Z,99477.63
2022-10-23T14:10:46.587Z,99472.03
2022-10-23T14:13:13.388Z,99467.69
2022-10-23T14:15:40.239Z,99472.75
2022-10-23T14:18:08.342Z,99468.19
2022-10-23T14:20:35.465Z,99469.38
2022-10-23T14:23:02.122Z,99462.84
2022-10-23T14:25:28.935Z,99465.91
2022-10-23T14:30:27.362Z,99466.50
2022-10-23T14:32:54.104Z,99468.44
2022-10-23T14:35:21.118Z,99471.47
2022-10-23T14:37:47.797Z,99467.00
2022-10-23T14:40:14.668Z,99469.44
2022-10-23T14:42:41.480Z,99474.91
2022-10-23T14:45:08.805Z,99475.69
2022-10-23T14:47:35.813Z,99472.66
2022-10-23T14:50:02.879Z,99473.19
2022-10-23T14:52:29.840Z,99479.50
2022-10-23T14:54:56.629Z,99480.28
2022-10-23T14:57:23.528Z,99487.47
2022-10-23T14:59:50.524Z,99475.06
2022-10-23T15:02:17.755Z,99480.56
2022-10-23T15:04:44.682Z,99481.59
2022-10-23T15:07:11.651Z,99478.78
2022-10-23T15:09:39.689Z,99475.06
2022-10-23T15:12:07.763Z,99476.03
2022-10-23T15:14:34.874Z,99484.25
2022-10-23T15:17:01.674Z,99468.66
2022-10-23T15:19:28.483Z,99467.59
2022-10-23T15:21:55.268Z,99468.72
2022-10-23T15:24:22.320Z,99467.00
2022-10-23T15:26:50.178Z,99467.50
2022-10-23T15:29:17.645Z,99458.38
2022-10-23T15:31:53.195Z,99469.47
2022-10-23T15:34:23.000Z,99457.97
2022-10-23T15:36:50.599Z,99457.03
2022-10-23T15:39:25.293Z,99454.97
2022-10-23T15:41:55.195Z,99458.91
2022-10-23T15:44:24.342Z,99460.44
2022-10-23T15:46:52.131Z,99459.28
2022-10-23T15:49:20.041Z,99462.00
2022-10-23T15:51:46.847Z,99461.19
2022-10-23T15:54:19.539Z,99459.63
2022-10-23T15:56:49.395Z,99463.34
2022-10-23T15:59:16.577Z,99455.25
2022-10-23T16:01:43.502Z,99451.41
2022-10-23T16:04:10.422Z,99446.44
2022-10-23T16:06:37.156Z,99450.44
2022-10-23T16:09:04.206Z,99437.03
2022-10-23T16:11:35.294Z,99443.91
2022-10-23T16:14:03.647Z,99446.38
2022-10-23T16:16:32.113Z,99448.97
2022-10-23T16:19:00.674Z,99448.38
2022-10-23T16:21:30.261Z,99457.13
2022-10-23T16:23:59.352Z,99451.38
2022-10-23T16:26:26.785Z,99452.94
2022-10-23T16:28:55.786Z,99451.50
2022-10-23T16:31:23.664Z,99448.69
2022-10-23T16:33:51.380Z,99445.84
2022-10-23T16:36:19.638Z,99444.56
2022-10-23T16:38:46.453Z,99447.47
2022-10-23T16:41:13.403Z,99441.63
2022-10-23T16:43:40.146Z,99444.63
2022-10-23T16:46:14.642Z,99439.63
2022-10-23T16:48:41.811Z,99440.47
2022-10-23T16:51:11.335Z,99434.97
2022-10-23T16:53:39.191Z,99434.03
2022-10-23T16:56:08.358Z,99435.00
2022-10-23T16:58:35.183Z,99430.75
2022-10-23T17:01:16.062Z,99441.38
2022-10-23T17:03:45.001Z,99437.34
2022-10-23T17:06:14.126Z,99439.16
2022-10-23T17:08:41.557Z,99440.94
2022-10-23T17:11:13.203Z,99444.63
2022-10-23T17:13:43.239Z,99454.53
2022-10-23T17:16:12.634Z,99452.75
2022-10-23T17:18:43.676Z,99454.56
2022-10-23T17:21:12.540Z,99456.34
2022-10-23T17:23:39.170Z,99458.25
2022-10-23T17:26:11.218Z,99463.16
2022-10-23T17:28:40.829Z,99463.25
2022-10-23T17:31:34.797Z,99463.75
2022-10-23T17:34:04.483Z,99467.66
2022-10-23T17:36:33.431Z,99464.81
2022-10-23T17:39:00.017Z,99462.19
2022-10-23T17:41:26.987Z,99462.66
2022-10-23T17:43:58.002Z,99467.78
2022-10-23T17:46:24.949Z,99462.91
2022-10-23T17:48:51.947Z,99467.91
2022-10-23T17:51:22.278Z,99460.41
2022-10-23T17:53:52.407Z,99468.25
2022-10-23T17:56:26.247Z,99469.22
2022-10-23T17:58:55.302Z,99471.94
2022-10-23T18:01:25.250Z,99480.38
2022-10-23T18:03:53.402Z,99474.69
2022-10-23T18:06:27.302Z,99472.06
2022-10-23T18:08:56.549Z,99476.72
2022-10-23T18:11:29.894Z,99477.78
2022-10-23T18:16:30.390Z,99476.47
2022-10-23T18:20:01.729Z,99468.63
2022-10-23T18:22:30.464Z,99473.16
2022-10-23T18:29:38.530Z,99470.03
2022-10-23T18:32:05.480Z,99479.78
2022-10-23T18:34:32.158Z,99478.97
2022-10-23T18:37:00.862Z,99479.22
2022-10-23T18:39:28.653Z,99481.56
2022-10-23T18:41:57.685Z,99482.91
2022-10-23T18:44:27.721Z,99490.50
2022-10-23T18:46:57.106Z,99490.13
2022-10-23T18:49:24.245Z,99486.00
2022-10-23T18:51:51.262Z,99483.81
2022-10-23T18:54:20.067Z,99487.47
2022-10-23T18:56:46.930Z,99484.16
2022-10-23T18:59:16.644Z,99479.72
2022-10-23T19:01:44.026Z,99491.28
2022-10-23T19:04:15.795Z,99490.22
2022-10-23T19:06:43.310Z,99487.47
2022-10-23T19:09:13.762Z,99494.63
2022-10-23T19:11:41.772Z,99496.31
2022-10-23T19:14:09.606Z,99496.31
2022-10-23T19:16:57.337Z,99494.63
2022-10-23T19:19:28.820Z,99503.91
2022-10-23T19:21:55.920Z,99506.06
2022-10-23T19:24:29.755Z,99500.59
2022-10-23T19:26:57.715Z,99495.09
2022-10-23T19:29:26.731Z,99496.75
2022-10-23T19:31:54.201Z,99503.91
2022-10-23T19:34:24.821Z,99507.72
2022-10-23T19:36:54.703Z,99505.28
2022-10-23T19:39:21.591Z,99503.31
2022-10-23T19:41:51.717Z,99499.25
2022-10-23T19:44:19.789Z,99492.19
2022-10-23T19:46:47.557Z,99495.84
2022-10-23T19:49:14.647Z,99498.28
2022-10-23T19:51:50.437Z,99499.44
2022-10-23T19:55:17.779Z,99496.31
2022-10-23T20:02:36.959Z,99501.28
2022-10-23T20:06:06.594Z,99500.06
2022-10-23T20:08:35.110Z,99498.84
2022-10-23T20:15:43.660Z,99507.28
2022-10-23T20:19:10.425Z,99508.56
2022-10-23T20:22:39.523Z,99504.16
2022-10-23T20:26:08.375Z,99499.53
2022-10-23T20:33:27.494Z,99489.72
2022-10-23T20:37:05.751Z,99488.50
2022-10-23T20:43:24.990Z,99480.47
2022-10-23T20:46:19.845Z,99474.59
2022-10-23T20:48:46.668Z,99467.09
2022-10-23T20:51:16.656Z,99471.34
2022-10-23T20:53:44.752Z,99477.03
2022-10-23T20:56:19.659Z,99479.38
2022-10-23T20:58:46.841Z,99478.78
2022-10-23T21:01:16.849Z,99478.34
2022-10-23T21:03:45.242Z,99476.88
2022-10-23T21:06:14.836Z,99472.69
2022-10-23T21:08:42.132Z,99474.00
2022-10-23T21:11:12.821Z,99480.53
2022-10-23T21:13:39.603Z,99476.34
2022-10-23T21:16:18.192Z,99478.25
2022-10-23T21:18:46.713Z,99478.69
2022-10-23T21:21:19.951Z,99481.88
2022-10-23T21:23:49.575Z,99479.59
2022-10-23T21:26:18.230Z,99480.03
2022-10-23T21:28:55.682Z,99483.22
2022-10-23T21:31:33.772Z,99487.66
2022-10-23T21:34:00.789Z,99480.78
2022-10-23T21:36:29.885Z,99477.63
2022-10-23T21:38:58.886Z,99483.31
2022-10-23T21:41:35.683Z,99488.59
2022-10-23T21:44:05.076Z,99486.13
2022-10-23T21:46:33.959Z,99485.59
2022-10-23T21:49:01.677Z,99485.41
2022-10-23T21:51:31.515Z,99485.63
2022-10-23T21:53:59.109Z,99489.44
2022-10-23T21:56:30.600Z,99482.06
2022-10-23T21:59:01.355Z,99488.34
2022-10-23T22:01:29.030Z,99492.75
2022-10-23T22:03:56.854Z,99486.69
2022-10-23T22:06:26.937Z,99489.63
2022-10-23T22:08:55.203Z,99487.75
2022-10-23T22:11:25.022Z,99487.53
2022-10-23T22:13:51.914Z,99492.16
2022-10-23T22:16:20.452Z,99485.84
2022-10-23T22:18:47.697Z,99483.34
2022-10-23T22:21:18.236Z,99483.34
2022-10-23T22:23:45.018Z,99483.34
2022-10-23T22:26:21.205Z,99482.50
2022-10-23T22:28:48.178Z,99475.38
2022-10-23T22:31:17.147Z,99482.50
2022-10-23T22:33:44.190Z,99482.94
2022-10-23T22:36:10.923Z,99488.38
2022-10-23T22:38:40.637Z,99485.88
2022-10-23T22:41:08.473Z,99485.06
2022-10-23T22:43:35.474Z,99484.22
2022-10-23T22:46:11.149Z,99488.00
2022-10-23T22:48:38.663Z,99484.47
2022-10-23T22:51:08.414Z,99484.47
2022-10-23T22:53:36.202Z,99483.81
2022-10-23T22:56:07.201Z,99484.03
2022-10-23T22:58:33.913Z,99482.38
2022-10-23T23:01:20.937Z,99488.25
2022-10-23T23:03:47.843Z,99493.72
2022-10-23T23:06:15.169Z,99496.91
2022-10-23T23:08:42.888Z,99493.53
2022-10-23T23:11:12.596Z,99507.81
2022-10-23T23:13:39.872Z,99487.63
2022-10-23T23:16:07.656Z,99497.94
2022-10-23T23:18:34.921Z,99491.88
2022-10-23T23:21:05.633Z,99503.84
2022-10-23T23:23:32.714Z,99508.66
2022-10-23T23:25:59.391Z,99506.16
2022-10-23T23:28:26.137Z,99508.66
2022-10-23T23:31:03.863Z,99507.00
2022-10-23T23:33:30.924Z,99512.47
2022-10-23T23:35:57.696Z,99499.88
2022-10-23T23:38:24.540Z,99502.81
2022-10-23T23:40:53.649Z,99508.50
2022-10-23T23:43:20.612Z,99503.28
2022-10-23T23:45:47.475Z,99512.50
2022-10-23T23:48:14.126Z,99512.72
2022-10-23T23:50:41.193Z,99513.78
2022-10-23T23:53:08.116Z,99512.31
2022-10-23T23:55:35.290Z,99515.47
2022-10-23T23:58:02.075Z,99510.25
